sensor_id;sensor_type;location;lat;lon;timestamp;P1;durP1;ratioP1;P2;durP2;ratioP2
39882;SDS011;55824;52.220;21.040;2023-04-15T00:01:23;5.78;;;4.13;;
39882;SDS011;55824;52.220;21.040;2023-04-15T00:03:52;4.88;;;3.97;;
39882;SDS011;55824;52.220;21.040;2023-04-15T00:06:19;5.22;;;3.95;;
39882;SDS011;55824;52.220;21.040;2023-04-15T00:08:45;5.82;;;4.32;;
39882;SDS011;55824;52.220;21.040;2023-04-15T00:11:11;5.13;;;3.90;;
39882;SDS011;55824;52.220;21.040;2023-04-15T00:13:37;4.55;;;3.42;;
39882;SDS011;55824;52.220;21.040;2023-04-15T00:16:04;4.57;;;3.35;;
39882;SDS011;55824;52.220;21.040;2023-04-15T00:18:30;5.30;;;3.90;;
39882;SDS011;55824;52.220;21.040;2023-04-15T00:20:56;4.93;;;3.72;;
39882;SDS011;55824;52.220;21.040;2023-04-15T00:23:23;6.10;;;4.35;;
39882;SDS011;55824;52.220;21.040;2023-04-15T00:25:49;5.43;;;3.55;;
39882;SDS011;55824;52.220;21.040;2023-04-15T00:28:15;5.80;;;3.70;;
39882;SDS011;55824;52.220;21.040;2023-04-15T00:30:41;4.70;;;3.70;;
39882;SDS011;55824;52.220;21.040;2023-04-15T00:33:07;5.20;;;3.97;;
39882;SDS011;55824;52.220;21.040;2023-04-15T00:35:33;5.43;;;3.88;;
39882;SDS011;55824;52.220;21.040;2023-04-15T00:38:01;7.80;;;3.78;;
39882;SDS011;55824;52.220;21.040;2023-04-15T00:40:27;5.25;;;4.03;;
39882;SDS011;55824;52.220;21.040;2023-04-15T00:42:53;6.32;;;3.58;;
39882;SDS011;55824;52.220;21.040;2023-04-15T00:45:19;4.70;;;3.88;;
39882;SDS011;55824;52.220;21.040;2023-04-15T00:47:45;5.30;;;4.00;;
39882;SDS011;55824;52.220;21.040;2023-04-15T00:50:11;4.53;;;3.83;;
39882;SDS011;55824;52.220;21.040;2023-04-15T00:52:37;4.90;;;3.75;;
39882;SDS011;55824;52.220;21.040;2023-04-15T00:55:04;4.88;;;3.90;;
39882;SDS011;55824;52.220;21.040;2023-04-15T00:57:30;4.60;;;3.50;;
39882;SDS011;55824;52.220;21.040;2023-04-15T00:59:57;4.85;;;3.83;;
39882;SDS011;55824;52.220;21.040;2023-04-15T01:02:23;4.93;;;3.90;;
39882;SDS011;55824;52.220;21.040;2023-04-15T01:04:49;4.38;;;3.40;;
39882;SDS011;55824;52.220;21.040;2023-04-15T01:07:15;5.88;;;3.72;;
39882;SDS011;55824;52.220;21.040;2023-04-15T01:09:41;5.45;;;3.65;;
39882;SDS011;55824;52.220;21.040;2023-04-15T01:12:09;4.72;;;4.03;;
39882;SDS011;55824;52.220;21.040;2023-04-15T01:14:36;4.65;;;3.50;;
39882;SDS011;55824;52.220;21.040;2023-04-15T01:17:02;4.80;;;3.58;;
39882;SDS011;55824;52.220;21.040;2023-04-15T01:19:28;4.50;;;3.30;;
39882;SDS011;55824;52.220;21.040;2023-04-15T01:21:55;4.28;;;3.55;;
39882;SDS011;55824;52.220;21.040;2023-04-15T01:24:21;5.22;;;3.88;;
39882;SDS011;55824;52.220;21.040;2023-04-15T01:26:47;4.80;;;3.65;;
39882;SDS011;55824;52.220;21.040;2023-04-15T01:29:14;5.18;;;3.75;;
39882;SDS011;55824;52.220;21.040;2023-04-15T01:31:40;6.03;;;4.10;;
39882;SDS011;55824;52.220;21.040;2023-04-15T01:34:13;5.18;;;3.78;;
39882;SDS011;55824;52.220;21.040;2023-04-15T01:36:39;6.13;;;3.33;;
39882;SDS011;55824;52.220;21.040;2023-04-15T01:39:05;4.45;;;3.55;;
39882;SDS011;55824;52.220;21.040;2023-04-15T01:41:32;4.03;;;3.38;;
39882;SDS011;55824;52.220;21.040;2023-04-15T01:43:58;5.25;;;3.97;;
39882;SDS011;55824;52.220;21.040;2023-04-15T01:46:24;5.50;;;3.83;;
39882;SDS011;55824;52.220;21.040;2023-04-15T01:48:50;4.88;;;3.53;;
39882;SDS011;55824;52.220;21.040;2023-04-15T01:51:16;5.22;;;3.78;;
39882;SDS011;55824;52.220;21.040;2023-04-15T01:53:42;4.07;;;3.67;;
39882;SDS011;55824;52.220;21.040;2023-04-15T01:56:08;5.50;;;3.90;;
39882;SDS011;55824;52.220;21.040;2023-04-15T01:58:34;4.35;;;3.25;;
39882;SDS011;55824;52.220;21.040;2023-04-15T02:01:01;5.03;;;3.45;;
39882;SDS011;55824;52.220;21.040;2023-04-15T02:03:27;4.53;;;3.50;;
39882;SDS011;55824;52.220;21.040;2023-04-15T02:05:53;4.25;;;3.35;;
39882;SDS011;55824;52.220;21.040;2023-04-15T02:08:19;5.57;;;3.50;;
39882;SDS011;55824;52.220;21.040;2023-04-15T02:10:45;5.43;;;3.88;;
39882;SDS011;55824;52.220;21.040;2023-04-15T02:13:12;4.30;;;3.53;;
39882;SDS011;55824;52.220;21.040;2023-04-15T02:15:38;5.00;;;3.60;;
39882;SDS011;55824;52.220;21.040;2023-04-15T02:18:04;4.85;;;3.80;;
39882;SDS011;55824;52.220;21.040;2023-04-15T02:20:30;4.13;;;3.40;;
39882;SDS011;55824;52.220;21.040;2023-04-15T02:22:56;5.13;;;3.80;;
39882;SDS011;55824;52.220;21.040;2023-04-15T02:25:22;4.63;;;3.58;;
39882;SDS011;55824;52.220;21.040;2023-04-15T02:27:48;4.18;;;3.47;;
39882;SDS011;55824;52.220;21.040;2023-04-15T02:30:15;4.30;;;3.28;;
39882;SDS011;55824;52.220;21.040;2023-04-15T02:32:41;4.18;;;3.05;;
39882;SDS011;55824;52.220;21.040;2023-04-15T02:35:08;4.07;;;3.50;;
39882;SDS011;55824;52.220;21.040;2023-04-15T02:37:36;5.28;;;3.80;;
39882;SDS011;55824;52.220;21.040;2023-04-15T02:40:07;4.88;;;3.40;;
39882;SDS011;55824;52.220;21.040;2023-04-15T02:42:40;5.47;;;3.75;;
39882;SDS011;55824;52.220;21.040;2023-04-15T02:45:07;4.55;;;3.45;;
39882;SDS011;55824;52.220;21.040;2023-04-15T02:47:33;4.75;;;3.13;;
39882;SDS011;55824;52.220;21.040;2023-04-15T02:50:00;4.53;;;2.97;;
39882;SDS011;55824;52.220;21.040;2023-04-15T02:52:26;4.55;;;3.60;;
39882;SDS011;55824;52.220;21.040;2023-04-15T02:54:52;4.57;;;3.60;;
39882;SDS011;55824;52.220;21.040;2023-04-15T02:57:21;4.03;;;3.15;;
39882;SDS011;55824;52.220;21.040;2023-04-15T02:59:47;4.93;;;3.45;;
39882;SDS011;55824;52.220;21.040;2023-04-15T03:02:13;4.90;;;3.53;;
39882;SDS011;55824;52.220;21.040;2023-04-15T03:04:39;4.05;;;3.33;;
39882;SDS011;55824;52.220;21.040;2023-04-15T03:07:05;4.68;;;3.70;;
39882;SDS011;55824;52.220;21.040;2023-04-15T03:09:31;4.28;;;3.22;;
39882;SDS011;55824;52.220;21.040;2023-04-15T03:11:57;3.90;;;3.17;;
39882;SDS011;55824;52.220;21.040;2023-04-15T03:14:23;4.20;;;3.47;;
39882;SDS011;55824;52.220;21.040;2023-04-15T03:16:49;4.82;;;3.70;;
39882;SDS011;55824;52.220;21.040;2023-04-15T03:19:16;3.92;;;3.53;;
39882;SDS011;55824;52.220;21.040;2023-04-15T03:21:42;4.00;;;3.28;;
39882;SDS011;55824;52.220;21.040;2023-04-15T03:24:08;4.15;;;3.33;;
39882;SDS011;55824;52.220;21.040;2023-04-15T03:26:34;4.35;;;3.25;;
39882;SDS011;55824;52.220;21.040;2023-04-15T03:29:00;4.13;;;3.25;;
39882;SDS011;55824;52.220;21.040;2023-04-15T03:31:26;5.07;;;3.58;;
39882;SDS011;55824;52.220;21.040;2023-04-15T03:33:52;4.43;;;3.63;;
39882;SDS011;55824;52.220;21.040;2023-04-15T03:36:18;4.57;;;3.50;;
39882;SDS011;55824;52.220;21.040;2023-04-15T03:38:44;4.82;;;3.72;;
39882;SDS011;55824;52.220;21.040;2023-04-15T03:41:10;5.88;;;3.67;;
39882;SDS011;55824;52.220;21.040;2023-04-15T03:43:36;4.72;;;3.60;;
39882;SDS011;55824;52.220;21.040;2023-04-15T03:46:02;5.82;;;3.60;;
39882;SDS011;55824;52.220;21.040;2023-04-15T03:48:28;4.32;;;3.47;;
39882;SDS011;55824;52.220;21.040;2023-04-15T03:50:54;4.60;;;3.30;;
39882;SDS011;55824;52.220;21.040;2023-04-15T03:53:20;5.45;;;3.30;;
39882;SDS011;55824;52.220;21.040;2023-04-15T03:55:46;4.45;;;3.47;;
39882;SDS011;55824;52.220;21.040;2023-04-15T03:58:12;5.25;;;3.72;;
39882;SDS011;55824;52.220;21.040;2023-04-15T04:00:39;7.13;;;3.78;;
39882;SDS011;55824;52.220;21.040;2023-04-15T04:03:05;5.45;;;3.53;;
39882;SDS011;55824;52.220;21.040;2023-04-15T04:05:32;6.18;;;3.58;;
39882;SDS011;55824;52.220;21.040;2023-04-15T04:08:00;4.50;;;3.80;;
39882;SDS011;55824;52.220;21.040;2023-04-15T04:10:26;5.00;;;3.40;;
39882;SDS011;55824;52.220;21.040;2023-04-15T04:12:52;4.30;;;3.33;;
39882;SDS011;55824;52.220;21.040;2023-04-15T04:15:18;5.18;;;3.53;;
39882;SDS011;55824;52.220;21.040;2023-04-15T04:17:45;4.47;;;3.50;;
39882;SDS011;55824;52.220;21.040;2023-04-15T04:20:10;4.60;;;3.67;;
39882;SDS011;55824;52.220;21.040;2023-04-15T04:22:37;8.10;;;3.95;;
39882;SDS011;55824;52.220;21.040;2023-04-15T04:25:06;4.78;;;3.22;;
39882;SDS011;55824;52.220;21.040;2023-04-15T04:27:32;4.18;;;3.13;;
39882;SDS011;55824;52.220;21.040;2023-04-15T04:29:59;7.25;;;4.03;;
39882;SDS011;55824;52.220;21.040;2023-04-15T04:32:25;5.47;;;3.40;;
39882;SDS011;55824;52.220;21.040;2023-04-15T04:34:52;4.45;;;3.60;;
39882;SDS011;55824;52.220;21.040;2023-04-15T04:37:18;4.82;;;3.85;;
39882;SDS011;55824;52.220;21.040;2023-04-15T04:39:44;4.68;;;3.72;;
39882;SDS011;55824;52.220;21.040;2023-04-15T04:42:10;4.90;;;3.47;;
39882;SDS011;55824;52.220;21.040;2023-04-15T04:44:36;5.38;;;3.95;;
39882;SDS011;55824;52.220;21.040;2023-04-15T04:47:03;4.82;;;3.28;;
39882;SDS011;55824;52.220;21.040;2023-04-15T04:49:29;4.43;;;3.63;;
39882;SDS011;55824;52.220;21.040;2023-04-15T04:51:55;4.97;;;3.67;;
39882;SDS011;55824;52.220;21.040;2023-04-15T04:54:22;4.53;;;3.83;;
39882;SDS011;55824;52.220;21.040;2023-04-15T04:56:48;4.47;;;3.40;;
39882;SDS011;55824;52.220;21.040;2023-04-15T04:59:14;5.60;;;3.65;;
39882;SDS011;55824;52.220;21.040;2023-04-15T05:01:40;6.50;;;3.40;;
39882;SDS011;55824;52.220;21.040;2023-04-15T05:04:06;5.20;;;4.00;;
39882;SDS011;55824;52.220;21.040;2023-04-15T05:06:32;5.38;;;3.58;;
39882;SDS011;55824;52.220;21.040;2023-04-15T05:09:00;4.28;;;3.30;;
39882;SDS011;55824;52.220;21.040;2023-04-15T05:11:27;5.10;;;3.60;;
39882;SDS011;55824;52.220;21.040;2023-04-15T05:13:53;5.07;;;3.53;;
39882;SDS011;55824;52.220;21.040;2023-04-15T05:16:19;3.65;;;3.25;;
39882;SDS011;55824;52.220;21.040;2023-04-15T05:18:45;4.60;;;3.70;;
39882;SDS011;55824;52.220;21.040;2023-04-15T05:21:11;4.57;;;3.38;;
39882;SDS011;55824;52.220;21.040;2023-04-15T05:23:37;5.53;;;3.67;;
39882;SDS011;55824;52.220;21.040;2023-04-15T05:26:03;4.45;;;3.38;;
39882;SDS011;55824;52.220;21.040;2023-04-15T05:28:29;3.95;;;3.35;;
39882;SDS011;55824;52.220;21.040;2023-04-15T05:30:56;5.10;;;3.80;;
39882;SDS011;55824;52.220;21.040;2023-04-15T05:33:22;7.50;;;3.90;;
39882;SDS011;55824;52.220;21.040;2023-04-15T05:35:48;4.65;;;3.80;;
39882;SDS011;55824;52.220;21.040;2023-04-15T05:38:14;5.53;;;3.72;;
39882;SDS011;55824;52.220;21.040;2023-04-15T05:40:40;6.03;;;3.40;;
39882;SDS011;55824;52.220;21.040;2023-04-15T05:43:06;5.05;;;3.30;;
39882;SDS011;55824;52.220;21.040;2023-04-15T05:45:32;4.57;;;3.65;;
39882;SDS011;55824;52.220;21.040;2023-04-15T05:47:58;4.15;;;3.38;;
39882;SDS011;55824;52.220;21.040;2023-04-15T05:50:24;5.13;;;3.60;;
39882;SDS011;55824;52.220;21.040;2023-04-15T05:52:50;5.32;;;3.22;;
39882;SDS011;55824;52.220;21.040;2023-04-15T05:55:16;5.47;;;3.63;;
39882;SDS011;55824;52.220;21.040;2023-04-15T05:57:42;4.93;;;3.40;;
39882;SDS011;55824;52.220;21.040;2023-04-15T06:00:08;6.22;;;3.03;;
39882;SDS011;55824;52.220;21.040;2023-04-15T06:02:34;5.03;;;3.30;;
39882;SDS011;55824;52.220;21.040;2023-04-15T06:05:00;4.05;;;3.10;;
39882;SDS011;55824;52.220;21.040;2023-04-15T06:07:27;3.67;;;3.00;;
39882;SDS011;55824;52.220;21.040;2023-04-15T06:09:53;8.40;;;3.40;;
39882;SDS011;55824;52.220;21.040;2023-04-15T06:12:19;5.25;;;3.97;;
39882;SDS011;55824;52.220;21.040;2023-04-15T06:14:45;4.13;;;3.20;;
39882;SDS011;55824;52.220;21.040;2023-04-15T06:17:11;8.25;;;3.22;;
39882;SDS011;55824;52.220;21.040;2023-04-15T06:19:38;4.28;;;3.22;;
39882;SDS011;55824;52.220;21.040;2023-04-15T06:22:04;5.45;;;3.53;;
39882;SDS011;55824;52.220;21.040;2023-04-15T06:24:31;5.15;;;3.33;;
39882;SDS011;55824;52.220;21.040;2023-04-15T06:26:57;9.25;;;3.25;;
39882;SDS011;55824;52.220;21.040;2023-04-15T06:29:23;5.75;;;3.10;;
39882;SDS011;55824;52.220;21.040;2023-04-15T06:31:49;4.72;;;3.22;;
39882;SDS011;55824;52.220;21.040;2023-04-15T06:34:15;10.02;;;3.45;;
39882;SDS011;55824;52.220;21.040;2023-04-15T06:36:41;3.95;;;2.80;;
39882;SDS011;55824;52.220;21.040;2023-04-15T06:39:07;6.07;;;3.85;;
39882;SDS011;55824;52.220;21.040;2023-04-15T06:41:33;8.75;;;3.78;;
39882;SDS011;55824;52.220;21.040;2023-04-15T06:43:59;5.95;;;3.47;;
39882;SDS011;55824;52.220;21.040;2023-04-15T06:46:25;5.88;;;3.90;;
39882;SDS011;55824;52.220;21.040;2023-04-15T06:48:51;6.25;;;3.22;;
39882;SDS011;55824;52.220;21.040;2023-04-15T06:51:17;8.02;;;3.53;;
39882;SDS011;55824;52.220;21.040;2023-04-15T06:53:43;6.68;;;3.20;;
39882;SDS011;55824;52.220;21.040;2023-04-15T06:56:09;5.78;;;3.03;;
39882;SDS011;55824;52.220;21.040;2023-04-15T06:58:35;5.65;;;3.10;;
39882;SDS011;55824;52.220;21.040;2023-04-15T07:01:02;5.07;;;3.53;;
39882;SDS011;55824;52.220;21.040;2023-04-15T07:03:28;4.90;;;2.95;;
39882;SDS011;55824;52.220;21.040;2023-04-15T07:05:54;5.63;;;3.10;;
39882;SDS011;55824;52.220;21.040;2023-04-15T07:08:20;5.03;;;2.80;;
39882;SDS011;55824;52.220;21.040;2023-04-15T07:10:46;4.75;;;3.60;;
39882;SDS011;55824;52.220;21.040;2023-04-15T07:13:12;5.32;;;3.20;;
39882;SDS011;55824;52.220;21.040;2023-04-15T07:15:38;4.07;;;2.88;;
39882;SDS011;55824;52.220;21.040;2023-04-15T07:18:04;3.95;;;2.65;;
39882;SDS011;55824;52.220;21.040;2023-04-15T07:20:30;7.95;;;3.10;;
39882;SDS011;55824;52.220;21.040;2023-04-15T07:22:56;10.68;;;3.88;;
39882;SDS011;55824;52.220;21.040;2023-04-15T07:25:22;7.85;;;4.38;;
39882;SDS011;55824;52.220;21.040;2023-04-15T07:27:48;11.90;;;3.78;;
39882;SDS011;55824;52.220;21.040;2023-04-15T07:30:15;10.55;;;4.03;;
39882;SDS011;55824;52.220;21.040;2023-04-15T07:32:41;9.85;;;3.20;;
39882;SDS011;55824;52.220;21.040;2023-04-15T07:35:07;8.60;;;3.70;;
39882;SDS011;55824;52.220;21.040;2023-04-15T07:37:33;10.63;;;3.42;;
39882;SDS011;55824;52.220;21.040;2023-04-15T07:40:00;12.20;;;3.58;;
39882;SDS011;55824;52.220;21.040;2023-04-15T07:42:26;12.77;;;3.80;;
39882;SDS011;55824;52.220;21.040;2023-04-15T07:44:53;7.90;;;3.33;;
39882;SDS011;55824;52.220;21.040;2023-04-15T07:47:19;11.52;;;3.22;;
39882;SDS011;55824;52.220;21.040;2023-04-15T07:49:45;9.10;;;2.90;;
39882;SDS011;55824;52.220;21.040;2023-04-15T07:52:11;5.93;;;3.30;;
39882;SDS011;55824;52.220;21.040;2023-04-15T07:54:37;8.15;;;2.83;;
39882;SDS011;55824;52.220;21.040;2023-04-15T07:57:03;7.05;;;3.38;;
39882;SDS011;55824;52.220;21.040;2023-04-15T07:59:29;8.02;;;2.80;;
39882;SDS011;55824;52.220;21.040;2023-04-15T08:01:57;3.70;;;2.50;;
39882;SDS011;55824;52.220;21.040;2023-04-15T08:04:23;4.18;;;2.85;;
39882;SDS011;55824;52.220;21.040;2023-04-15T08:06:49;5.90;;;2.42;;
39882;SDS011;55824;52.220;21.040;2023-04-15T08:09:16;4.90;;;2.75;;
39882;SDS011;55824;52.220;21.040;2023-04-15T08:11:42;7.75;;;2.60;;
39882;SDS011;55824;52.220;21.040;2023-04-15T08:14:08;3.50;;;2.45;;
39882;SDS011;55824;52.220;21.040;2023-04-15T08:16:34;6.68;;;3.08;;
39882;SDS011;55824;52.220;21.040;2023-04-15T08:19:00;5.65;;;2.97;;
39882;SDS011;55824;52.220;21.040;2023-04-15T08:21:27;6.40;;;2.65;;
39882;SDS011;55824;52.220;21.040;2023-04-15T08:23:55;4.30;;;2.95;;
39882;SDS011;55824;52.220;21.040;2023-04-15T08:26:21;3.50;;;2.38;;
39882;SDS011;55824;52.220;21.040;2023-04-15T08:28:47;5.20;;;2.80;;
39882;SDS011;55824;52.220;21.040;2023-04-15T08:31:13;4.80;;;2.53;;
39882;SDS011;55824;52.220;21.040;2023-04-15T08:33:40;2.40;;;2.13;;
39882;SDS011;55824;52.220;21.040;2023-04-15T08:36:06;3.05;;;2.50;;
39882;SDS011;55824;52.220;21.040;2023-04-15T08:38:32;2.58;;;2.15;;
39882;SDS011;55824;52.220;21.040;2023-04-15T08:41:44;2.83;;;2.22;;
39882;SDS011;55824;52.220;21.040;2023-04-15T08:43:51;3.67;;;2.70;;
39882;SDS011;55824;52.220;21.040;2023-04-15T08:46:17;3.42;;;2.35;;
39882;SDS011;55824;52.220;21.040;2023-04-15T08:48:44;3.90;;;2.67;;
39882;SDS011;55824;52.220;21.040;2023-04-15T08:51:10;4.60;;;2.03;;
39882;SDS011;55824;52.220;21.040;2023-04-15T08:53:40;4.72;;;2.47;;
39882;SDS011;55824;52.220;21.040;2023-04-15T08:56:06;2.58;;;2.00;;
39882;SDS011;55824;52.220;21.040;2023-04-15T08:58:34;3.55;;;2.30;;
39882;SDS011;55824;52.220;21.040;2023-04-15T09:01:01;3.97;;;1.92;;
39882;SDS011;55824;52.220;21.040;2023-04-15T09:03:27;2.83;;;2.10;;
39882;SDS011;55824;52.220;21.040;2023-04-15T09:05:53;2.78;;;2.03;;
39882;SDS011;55824;52.220;21.040;2023-04-15T09:08:19;3.50;;;2.20;;
39882;SDS011;55824;52.220;21.040;2023-04-15T09:10:46;4.30;;;2.17;;
39882;SDS011;55824;52.220;21.040;2023-04-15T09:13:12;3.35;;;2.30;;
39882;SDS011;55824;52.220;21.040;2023-04-15T09:15:38;2.28;;;1.73;;
39882;SDS011;55824;52.220;21.040;2023-04-15T09:18:04;3.08;;;2.08;;
39882;SDS011;55824;52.220;21.040;2023-04-15T09:20:38;3.90;;;2.00;;
39882;SDS011;55824;52.220;21.040;2023-04-15T09:23:11;3.53;;;1.92;;
39882;SDS011;55824;52.220;21.040;2023-04-15T09:25:38;3.70;;;2.30;;
39882;SDS011;55824;52.220;21.040;2023-04-15T09:28:06;3.60;;;2.20;;
39882;SDS011;55824;52.220;21.040;2023-04-15T09:30:32;2.95;;;2.20;;
39882;SDS011;55824;52.220;21.040;2023-04-15T09:33:00;3.03;;;2.00;;
39882;SDS011;55824;52.220;21.040;2023-04-15T09:35:27;4.40;;;2.40;;
39882;SDS011;55824;52.220;21.040;2023-04-15T09:38:00;3.40;;;2.00;;
39882;SDS011;55824;52.220;21.040;2023-04-15T09:40:30;4.00;;;2.10;;
39882;SDS011;55824;52.220;21.040;2023-04-15T09:42:57;2.50;;;1.80;;
39882;SDS011;55824;52.220;21.040;2023-04-15T09:45:23;3.63;;;1.60;;
39882;SDS011;55824;52.220;21.040;2023-04-15T09:47:50;3.20;;;2.10;;
39882;SDS011;55824;52.220;21.040;2023-04-15T09:50:17;2.78;;;1.95;;
39882;SDS011;55824;52.220;21.040;2023-04-15T09:52:43;1.98;;;1.67;;
39882;SDS011;55824;52.220;21.040;2023-04-15T09:55:10;2.65;;;1.80;;
39882;SDS011;55824;52.220;21.040;2023-04-15T09:57:36;1.92;;;1.60;;
39882;SDS011;55824;52.220;21.040;2023-04-15T10:00:03;2.38;;;1.70;;
39882;SDS011;55824;52.220;21.040;2023-04-15T10:02:30;2.78;;;1.77;;
39882;SDS011;55824;52.220;21.040;2023-04-15T10:04:56;2.33;;;1.52;;
39882;SDS011;55824;52.220;21.040;2023-04-15T10:07:22;2.33;;;1.77;;
39882;SDS011;55824;52.220;21.040;2023-04-15T10:09:50;1.95;;;1.65;;
39882;SDS011;55824;52.220;21.040;2023-04-15T10:12:16;1.60;;;1.50;;
39882;SDS011;55824;52.220;21.040;2023-04-15T10:14:43;2.33;;;1.75;;
39882;SDS011;55824;52.220;21.040;2023-04-15T10:17:10;3.92;;;2.10;;
39882;SDS011;55824;52.220;21.040;2023-04-15T10:19:39;3.65;;;1.67;;
39882;SDS011;55824;52.220;21.040;2023-04-15T10:22:05;3.40;;;1.70;;
39882;SDS011;55824;52.220;21.040;2023-04-15T10:24:32;2.33;;;1.45;;
39882;SDS011;55824;52.220;21.040;2023-04-15T10:26:59;2.95;;;1.63;;
39882;SDS011;55824;52.220;21.040;2023-04-15T10:29:25;3.05;;;1.67;;
39882;SDS011;55824;52.220;21.040;2023-04-15T10:31:53;2.00;;;1.50;;
39882;SDS011;55824;52.220;21.040;2023-04-15T10:34:19;2.28;;;1.70;;
39882;SDS011;55824;52.220;21.040;2023-04-15T10:36:45;2.22;;;1.63;;
39882;SDS011;55824;52.220;21.040;2023-04-15T10:42:13;4.75;;;1.80;;
39882;SDS011;55824;52.220;21.040;2023-04-15T10:44:49;1.98;;;1.40;;
39882;SDS011;55824;52.220;21.040;2023-04-15T10:47:17;2.63;;;1.67;;
39882;SDS011;55824;52.220;21.040;2023-04-15T10:50:04;3.65;;;1.50;;
39882;SDS011;55824;52.220;21.040;2023-04-15T10:52:29;2.58;;;1.55;;
39882;SDS011;55824;52.220;21.040;2023-04-15T10:55:14;2.50;;;1.42;;
39882;SDS011;55824;52.220;21.040;2023-04-15T10:57:41;4.28;;;1.83;;
39882;SDS011;55824;52.220;21.040;2023-04-15T11:02:47;4.10;;;1.70;;
39882;SDS011;55824;52.220;21.040;2023-04-15T11:05:14;7.35;;;2.10;;
39882;SDS011;55824;52.220;21.040;2023-04-15T11:12:45;5.35;;;1.73;;
39882;SDS011;55824;52.220;21.040;2023-04-15T11:15:28;21.48;;;2.38;;
39882;SDS011;55824;52.220;21.040;2023-04-15T11:17:55;3.47;;;1.80;;
39882;SDS011;55824;52.220;21.040;2023-04-15T11:20:21;4.90;;;1.80;;
39882;SDS011;55824;52.220;21.040;2023-04-15T11:22:48;3.55;;;2.17;;
39882;SDS011;55824;52.220;21.040;2023-04-15T11:27:49;5.03;;;2.08;;
39882;SDS011;55824;52.220;21.040;2023-04-15T11:30:19;6.68;;;1.88;;
39882;SDS011;55824;52.220;21.040;2023-04-15T11:32:49;5.88;;;2.08;;
39882;SDS011;55824;52.220;21.040;2023-04-15T11:35:15;6.05;;;2.33;;
39882;SDS011;55824;52.220;21.040;2023-04-15T11:37:42;3.38;;;1.77;;
39882;SDS011;55824;52.220;21.040;2023-04-15T11:40:08;3.60;;;1.90;;
39882;SDS011;55824;52.220;21.040;2023-04-15T11:42:34;3.72;;;1.67;;
39882;SDS011;55824;52.220;21.040;2023-04-15T11:45:07;4.70;;;1.50;;
39882;SDS011;55824;52.220;21.040;2023-04-15T11:47:34;3.85;;;1.65;;
39882;SDS011;55824;52.220;21.040;2023-04-15T11:50:19;3.47;;;1.88;;
39882;SDS011;55824;52.220;21.040;2023-04-15T11:52:52;4.68;;;1.80;;
39882;SDS011;55824;52.220;21.040;2023-04-15T11:55:19;3.30;;;1.40;;
39882;SDS011;55824;52.220;21.040;2023-04-15T11:57:45;3.30;;;1.75;;
39882;SDS011;55824;52.220;21.040;2023-04-15T12:00:11;3.83;;;1.52;;
39882;SDS011;55824;52.220;21.040;2023-04-15T12:02:37;5.20;;;1.85;;
39882;SDS011;55824;52.220;21.040;2023-04-15T12:05:04;6.00;;;1.98;;
39882;SDS011;55824;52.220;21.040;2023-04-15T12:07:30;3.85;;;1.90;;
39882;SDS011;55824;52.220;21.040;2023-04-15T12:09:56;2.97;;;1.80;;
39882;SDS011;55824;52.220;21.040;2023-04-15T12:12:26;2.95;;;1.70;;
39882;SDS011;55824;52.220;21.040;2023-04-15T12:14:52;2.53;;;1.70;;
39882;SDS011;55824;52.220;21.040;2023-04-15T12:17:18;4.35;;;2.20;;
39882;SDS011;55824;52.220;21.040;2023-04-15T12:19:45;2.95;;;1.70;;
39882;SDS011;55824;52.220;21.040;2023-04-15T12:22:13;4.30;;;2.40;;
39882;SDS011;55824;52.220;21.040;2023-04-15T12:24:40;4.40;;;1.88;;
39882;SDS011;55824;52.220;21.040;2023-04-15T12:27:09;2.40;;;2.00;;
39882;SDS011;55824;52.220;21.040;2023-04-15T12:29:36;4.03;;;1.75;;
39882;SDS011;55824;52.220;21.040;2023-04-15T12:32:04;2.40;;;2.03;;
39882;SDS011;55824;52.220;21.040;2023-04-15T12:34:31;3.92;;;1.90;;
39882;SDS011;55824;52.220;21.040;2023-04-15T12:36:59;2.78;;;1.95;;
39882;SDS011;55824;52.220;21.040;2023-04-15T12:39:26;3.38;;;2.10;;
39882;SDS011;55824;52.220;21.040;2023-04-15T12:41:52;5.07;;;2.00;;
39882;SDS011;55824;52.220;21.040;2023-04-15T12:44:19;3.72;;;2.15;;
39882;SDS011;55824;52.220;21.040;2023-04-15T12:46:45;2.97;;;2.03;;
39882;SDS011;55824;52.220;21.040;2023-04-15T12:49:11;3.55;;;1.92;;
39882;SDS011;55824;52.220;21.040;2023-04-15T12:51:38;3.42;;;1.73;;
39882;SDS011;55824;52.220;21.040;2023-04-15T12:54:05;3.22;;;1.70;;
39882;SDS011;55824;52.220;21.040;2023-04-15T12:56:31;3.72;;;1.95;;
39882;SDS011;55824;52.220;21.040;2023-04-15T12:58:57;3.42;;;2.30;;
39882;SDS011;55824;52.220;21.040;2023-04-15T13:01:22;4.60;;;2.33;;
39882;SDS011;55824;52.220;21.040;2023-04-15T13:03:48;3.85;;;2.08;;
39882;SDS011;55824;52.220;21.040;2023-04-15T13:06:15;3.63;;;2.20;;
39882;SDS011;55824;52.220;21.040;2023-04-15T13:08:41;4.00;;;2.28;;
39882;SDS011;55824;52.220;21.040;2023-04-15T13:11:07;5.00;;;2.13;;
39882;SDS011;55824;52.220;21.040;2023-04-15T13:13:33;4.00;;;2.08;;
39882;SDS011;55824;52.220;21.040;2023-04-15T13:15:59;3.63;;;1.95;;
39882;SDS011;55824;52.220;21.040;2023-04-15T13:18:25;3.10;;;1.98;;
39882;SDS011;55824;52.220;21.040;2023-04-15T13:20:51;4.18;;;2.20;;
39882;SDS011;55824;52.220;21.040;2023-04-15T13:23:19;3.08;;;1.92;;
39882;SDS011;55824;52.220;21.040;2023-04-15T13:25:45;2.60;;;1.70;;
39882;SDS011;55824;52.220;21.040;2023-04-15T13:28:11;3.03;;;1.80;;
39882;SDS011;55824;52.220;21.040;2023-04-15T13:30:37;2.38;;;1.70;;
39882;SDS011;55824;52.220;21.040;2023-04-15T13:33:04;8.70;;;1.98;;
39882;SDS011;55824;52.220;21.040;2023-04-15T13:35:31;2.65;;;1.60;;
39882;SDS011;55824;52.220;21.040;2023-04-15T13:37:57;4.63;;;1.80;;
39882;SDS011;55824;52.220;21.040;2023-04-15T13:40:23;4.07;;;2.22;;
39882;SDS011;55824;52.220;21.040;2023-04-15T13:42:50;3.80;;;1.75;;
39882;SDS011;55824;52.220;21.040;2023-04-15T13:45:17;3.42;;;1.80;;
39882;SDS011;55824;52.220;21.040;2023-04-15T13:47:43;3.85;;;1.90;;
39882;SDS011;55824;52.220;21.040;2023-04-15T13:50:09;7.00;;;1.70;;
39882;SDS011;55824;52.220;21.040;2023-04-15T13:52:35;7.10;;;1.88;;
39882;SDS011;55824;52.220;21.040;2023-04-15T13:55:02;4.45;;;1.52;;
39882;SDS011;55824;52.220;21.040;2023-04-15T13:57:28;3.15;;;2.15;;
39882;SDS011;55824;52.220;21.040;2023-04-15T13:59:54;2.40;;;1.50;;
39882;SDS011;55824;52.220;21.040;2023-04-15T14:02:20;4.40;;;1.40;;
39882;SDS011;55824;52.220;21.040;2023-04-15T14:04:47;2.58;;;1.75;;
39882;SDS011;55824;52.220;21.040;2023-04-15T14:07:13;2.25;;;1.83;;
39882;SDS011;55824;52.220;21.040;2023-04-15T14:09:39;5.38;;;1.40;;
39882;SDS011;55824;52.220;21.040;2023-04-15T14:12:05;2.28;;;1.40;;
39882;SDS011;55824;52.220;21.040;2023-04-15T14:14:31;2.42;;;1.60;;
39882;SDS011;55824;52.220;21.040;2023-04-15T14:16:57;2.05;;;1.40;;
39882;SDS011;55824;52.220;21.040;2023-04-15T14:19:23;1.42;;;1.15;;
39882;SDS011;55824;52.220;21.040;2023-04-15T14:21:51;2.90;;;1.50;;
39882;SDS011;55824;52.220;21.040;2023-04-15T14:24:17;2.50;;;1.30;;
39882;SDS011;55824;52.220;21.040;2023-04-15T14:26:43;2.30;;;1.45;;
39882;SDS011;55824;52.220;21.040;2023-04-15T14:29:09;2.28;;;1.50;;
39882;SDS011;55824;52.220;21.040;2023-04-15T14:31:35;3.35;;;2.10;;
39882;SDS011;55824;52.220;21.040;2023-04-15T14:34:01;2.90;;;1.40;;
39882;SDS011;55824;52.220;21.040;2023-04-15T14:36:27;1.42;;;1.20;;
39882;SDS011;55824;52.220;21.040;2023-04-15T14:38:53;4.07;;;1.80;;
39882;SDS011;55824;52.220;21.040;2023-04-15T14:41:19;3.00;;;1.48;;
39882;SDS011;55824;52.220;21.040;2023-04-15T14:43:46;4.05;;;1.15;;